createdAt,value
2017-08-06T00:00:42.372Z,13.5
2017-08-06T00:01:49.848Z,13.5
2017-08-06T00:02:57.325Z,13.5
2017-08-06T00:04:04.801Z,13.6
2017-08-06T00:05:12.579Z,13.6
2017-08-06T00:06:20.055Z,13.5
2017-08-06T00:07:27.541Z,13.5
2017-08-06T00:08:35.012Z,13.5
2017-08-06T00:09:42.499Z,13.5
2017-08-06T00:10:50.270Z,13.5
2017-08-06T00:11:57.091Z,13.5
2017-08-06T00:13:04.240Z,13.5
2017-08-06T00:14:11.720Z,13.4
2017-08-06T00:15:33.774Z,13.4
2017-08-06T00:16:41.555Z,13.4
2017-08-06T00:17:48.708Z,13.4
2017-08-06T00:18:56.182Z,13.4
2017-08-06T00:20:03.663Z,13.4
2017-08-06T00:21:11.138Z,13.4
2017-08-06T00:22:18.920Z,13.4
2017-08-06T00:23:26.395Z,13.3
2017-08-06T00:24:33.873Z,13.3
2017-08-06T00:25:41.351Z,13.3
2017-08-06T00:26:48.516Z,13.3
2017-08-06T00:27:55.956Z,13.3
2017-08-06T00:29:03.448Z,13.3
2017-08-06T00:30:10.928Z,13.3
2017-08-06T00:31:18.426Z,13.3
2017-08-06T00:32:25.904Z,13.3
2017-08-06T00:33:33.680Z,13.2
2017-08-06T00:34:41.167Z,13.2
2017-08-06T00:35:48.653Z,13.2
2017-08-06T00:36:56.132Z,13.2
2017-08-06T00:38:03.289Z,13.1
2017-08-06T00:39:11.069Z,13.1
2017-08-06T00:40:18.547Z,13.1
2017-08-06T00:41:26.027Z,13.1
2017-08-06T00:42:33.173Z,13.1
2017-08-06T00:43:40.659Z,13.1
2017-08-06T00:44:48.439Z,13.1
2017-08-06T00:45:55.915Z,13
2017-08-06T00:47:03.058Z,13
2017-08-06T00:48:10.220Z,13
2017-08-06T00:49:17.694Z,13
2017-08-06T00:50:25.493Z,13
2017-08-06T00:51:32.964Z,12.9
2017-08-06T00:52:40.459Z,12.9
2017-08-06T00:53:47.289Z,12.9
2017-08-06T00:54:54.760Z,12.9
2017-08-06T00:56:02.541Z,12.9
2017-08-06T00:57:09.683Z,12.9
2017-08-06T00:58:17.160Z,12.9
2017-08-06T00:59:24.642Z,12.9
2017-08-06T01:00:32.122Z,12.9
2017-08-06T01:01:39.899Z,12.9
2017-08-06T01:02:47.389Z,12.8
2017-08-06T01:03:54.866Z,12.9
2017-08-06T01:05:02.348Z,12.9
2017-08-06T01:06:09.828Z,12.8
2017-08-06T01:07:17.602Z,12.8
2017-08-06T01:08:25.084Z,12.8
2017-08-06T01:09:32.574Z,12.8
2017-08-06T01:10:40.058Z,12.8
2017-08-06T01:11:47.549Z,12.7
2017-08-06T01:12:54.999Z,12.7
2017-08-06T01:14:02.476Z,12.7
2017-08-06T01:15:09.953Z,12.7
2017-08-06T01:16:17.430Z,12.7
2017-08-06T01:17:24.908Z,12.8
2017-08-06T01:18:32.687Z,12.8
2017-08-06T01:19:40.166Z,12.7
2017-08-06T01:20:47.645Z,12.8
2017-08-06T01:21:55.145Z,12.8
2017-08-06T01:23:02.619Z,12.8
2017-08-06T01:24:10.390Z,12.8
2017-08-06T01:25:17.536Z,12.8
2017-08-06T01:26:25.014Z,12.7
2017-08-06T01:27:32.489Z,12.7
2017-08-06T01:28:40.008Z,12.8
2017-08-06T01:29:47.801Z,12.7
2017-08-06T01:30:54.949Z,12.7
2017-08-06T01:32:02.424Z,12.6
2017-08-06T01:33:09.902Z,12.6
2017-08-06T01:34:17.386Z,12.6
2017-08-06T01:35:25.167Z,12.6
2017-08-06T01:36:32.654Z,12.6
2017-08-06T01:37:40.140Z,12.6
2017-08-06T01:38:47.618Z,12.7
2017-08-06T01:39:55.101Z,12.6
2017-08-06T01:41:02.878Z,12.6
2017-08-06T01:42:10.353Z,12.6
2017-08-06T01:43:17.826Z,12.6
2017-08-06T01:44:24.979Z,12.5
2017-08-06T01:45:32.135Z,12.5
2017-08-06T01:46:39.921Z,12.5
2017-08-06T01:47:47.442Z,12.5
2017-08-06T01:48:54.923Z,12.5
2017-08-06T01:50:02.395Z,12.5
2017-08-06T01:51:09.876Z,12.5
2017-08-06T01:52:17.317Z,12.5
2017-08-06T01:53:24.805Z,12.4
2017-08-06T01:54:32.283Z,12.5
2017-08-06T01:55:39.429Z,12.5
2017-08-06T01:56:46.575Z,12.5
2017-08-06T01:57:54.361Z,12.5
2017-08-06T01:59:01.839Z,12.4
2017-08-06T02:00:09.323Z,12.4
2017-08-06T02:01:16.808Z,12.4
2017-08-06T02:02:24.288Z,12.4
2017-08-06T02:03:31.737Z,12.4
2017-08-06T02:04:39.215Z,12.4
2017-08-06T02:05:46.721Z,12.4
2017-08-06T02:06:54.182Z,12.3
2017-08-06T02:08:01.657Z,12.3
2017-08-06T02:09:09.438Z,12.3
2017-08-06T02:10:16.913Z,12.3
2017-08-06T02:11:24.388Z,12.2
2017-08-06T02:12:31.867Z,12.2
2017-08-06T02:13:39.347Z,12.2
2017-08-06T02:14:46.800Z,12.2
2017-08-06T02:15:54.276Z,12.2
2017-08-06T02:17:01.767Z,12.1
2017-08-06T02:18:08.930Z,12.1
2017-08-06T02:19:16.410Z,12.1
2017-08-06T02:20:24.193Z,12
2017-08-06T02:21:31.344Z,12
2017-08-06T02:22:38.818Z,12
2017-08-06T02:23:46.323Z,12
2017-08-06T02:24:53.801Z,12
2017-08-06T02:26:01.592Z,12
2017-08-06T02:27:08.737Z,12
2017-08-06T02:28:16.216Z,12
2017-08-06T02:29:23.695Z,12
2017-08-06T02:30:31.177Z,11.9
2017-08-06T02:31:38.958Z,11.9
2017-08-06T02:32:46.127Z,12
2017-08-06T02:33:53.604Z,12
2017-08-06T02:35:01.087Z,11.9
2017-08-06T02:36:08.240Z,11.9
2017-08-06T02:37:16.020Z,12
2017-08-06T02:38:23.511Z,11.9
2017-08-06T02:39:30.664Z,11.9
2017-08-06T02:40:37.809Z,11.9
2017-08-06T02:41:45.288Z,11.8
2017-08-06T02:42:53.078Z,11.8
2017-08-06T02:44:00.223Z,11.8
2017-08-06T02:45:07.714Z,11.8
2017-08-06T02:46:15.193Z,11.8
2017-08-06T02:47:22.337Z,11.8
2017-08-06T02:48:30.115Z,11.8
2017-08-06T02:49:37.597Z,11.8
2017-08-06T02:50:45.071Z,11.8
2017-08-06T02:51:52.544Z,11.8
2017-08-06T02:53:00.015Z,11.8
2017-08-06T02:54:07.792Z,11.8
2017-08-06T02:55:14.942Z,11.7
2017-08-06T02:56:22.424Z,11.7
2017-08-06T02:57:29.571Z,11.7
2017-08-06T02:58:36.802Z,11.7
2017-08-06T02:59:44.582Z,11.7
2017-08-06T03:00:52.054Z,11.6
2017-08-06T03:01:59.558Z,11.6
2017-08-06T03:03:07.033Z,11.7
2017-08-06T03:04:14.516Z,11.7
2017-08-06T03:05:22.298Z,11.6
2017-08-06T03:06:29.459Z,11.6
2017-08-06T03:07:36.936Z,11.6
2017-08-06T03:08:44.416Z,11.6
2017-08-06T03:09:51.897Z,11.5
2017-08-06T03:10:59.686Z,11.5
2017-08-06T03:12:07.178Z,11.5
2017-08-06T03:13:14.322Z,11.5
2017-08-06T03:14:21.481Z,11.5
2017-08-06T03:15:28.953Z,11.5
2017-08-06T03:16:36.387Z,11.5
2017-08-06T03:17:43.536Z,11.4
2017-08-06T03:18:51.013Z,11.4
2017-08-06T03:19:58.157Z,11.4
2017-08-06T03:21:05.321Z,11.4
2017-08-06T03:22:13.104Z,11.3
2017-08-06T03:23:20.627Z,11.3
2017-08-06T03:24:28.106Z,11.3
2017-08-06T03:25:35.576Z,11.3
2017-08-06T03:26:43.054Z,11.3
2017-08-06T03:27:50.835Z,11.3
2017-08-06T03:28:58.314Z,11.3
2017-08-06T03:30:05.794Z,11.2
2017-08-06T03:31:13.268Z,11.2
2017-08-06T03:32:20.752Z,11.3
2017-08-06T03:33:28.527Z,11.3
2017-08-06T03:34:36.006Z,11.3
2017-08-06T03:35:43.480Z,11.3
2017-08-06T03:36:50.953Z,11.2
2017-08-06T03:37:58.442Z,11.2
2017-08-06T03:39:05.890Z,11.2
2017-08-06T03:40:13.393Z,11.2
2017-08-06T03:41:20.869Z,11.2
2017-08-06T03:42:28.361Z,11.2
2017-08-06T03:43:35.842Z,11.2
2017-08-06T03:44:43.286Z,11.2
2017-08-06T03:45:50.760Z,11.2
2017-08-06T03:46:58.239Z,11.2
2017-08-06T03:48:05.712Z,11.2
2017-08-06T03:49:13.191Z,11.2
2017-08-06T03:50:21.580Z,11.2
2017-08-06T03:51:29.054Z,11.1
2017-08-06T03:52:36.541Z,11.1
2017-08-06T03:53:43.680Z,11.1
2017-08-06T03:54:51.157Z,11.1
2017-08-06T03:55:58.926Z,11
2017-08-06T03:57:06.411Z,11
2017-08-06T03:58:13.911Z,11
2017-08-06T03:59:21.418Z,11
2017-08-06T04:00:28.892Z,11
2017-08-06T04:01:36.683Z,11
2017-08-06T04:02:44.160Z,11
2017-08-06T04:03:51.634Z,11
2017-08-06T04:04:59.110Z,11
2017-08-06T04:06:06.587Z,10.9
2017-08-06T04:07:14.372Z,10.9
2017-08-06T04:08:21.863Z,10.9
2017-08-06T04:09:29.016Z,10.9
2017-08-06T04:10:36.491Z,11
2017-08-06T04:11:43.962Z,10.9
2017-08-06T04:12:51.751Z,11
2017-08-06T04:13:59.224Z,11
2017-08-06T04:15:06.715Z,10.9
2017-08-06T04:16:14.194Z,11
2017-08-06T04:17:21.668Z,11
2017-08-06T04:18:29.123Z,11
2017-08-06T04:19:36.601Z,11
2017-08-06T04:20:43.739Z,11
2017-08-06T04:21:51.225Z,10.9
2017-08-06T04:22:58.371Z,10.9
2017-08-06T04:24:06.146Z,10.9
2017-08-06T04:25:13.625Z,10.9
2017-08-06T04:26:21.103Z,10.9
2017-08-06T04:27:28.587Z,10.9
2017-08-06T04:28:36.064Z,10.9
2017-08-06T04:29:43.849Z,10.9
2017-08-06T04:30:51.002Z,10.9
2017-08-06T04:31:58.148Z,10.9
2017-08-06T04:33:05.626Z,10.9
2017-08-06T04:34:12.769Z,10.9
2017-08-06T04:35:20.539Z,10.9
2017-08-06T04:36:28.021Z,10.9
2017-08-06T04:37:35.518Z,10.9
2017-08-06T04:38:42.657Z,10.9
2017-08-06T04:39:50.153Z,10.9
2017-08-06T04:40:57.932Z,10.9
2017-08-06T04:42:05.406Z,10.9
2017-08-06T04:43:12.882Z,10.9
2017-08-06T04:44:20.362Z,10.9
2017-08-06T04:45:27.836Z,10.9
2017-08-06T04:46:35.617Z,10.9
2017-08-06T04:47:43.094Z,10.9
2017-08-06T04:48:50.569Z,10.8
2017-08-06T04:49:58.043Z,10.9
2017-08-06T04:51:05.515Z,10.9
2017-08-06T04:52:13.326Z,10.9
2017-08-06T04:53:20.799Z,10.9
2017-08-06T04:54:28.275Z,10.9
2017-08-06T04:55:35.422Z,10.9
2017-08-06T04:56:43.613Z,11
2017-08-06T04:57:51.389Z,11
2017-08-06T04:58:58.861Z,11.1
2017-08-06T05:00:06.435Z,11.1
2017-08-06T05:01:13.903Z,11.1
2017-08-06T05:02:21.401Z,11.1
2017-08-06T05:03:29.178Z,11.1
2017-08-06T05:04:36.652Z,11.1
2017-08-06T05:05:44.131Z,11.2
2017-08-06T05:06:51.609Z,11.2
2017-08-06T05:07:59.093Z,11.2
2017-08-06T05:09:06.870Z,11.2
2017-08-06T05:10:14.342Z,11.3
2017-08-06T05:11:21.820Z,11.3
2017-08-06T05:12:29.295Z,11.3
2017-08-06T05:13:36.772Z,11.3
2017-08-06T05:14:44.543Z,11.4
2017-08-06T05:15:52.018Z,11.4
2017-08-06T05:16:59.158Z,11.4
2017-08-06T05:18:06.636Z,11.4
2017-08-06T05:19:14.113Z,11.5
2017-08-06T05:20:21.912Z,11.5
2017-08-06T05:21:29.398Z,11.6
2017-08-06T05:22:36.877Z,11.7
2017-08-06T05:23:44.368Z,11.7
2017-08-06T05:24:51.852Z,11.8
2017-08-06T05:25:59.622Z,11.8
2017-08-06T05:27:07.101Z,11.9
2017-08-06T05:28:14.580Z,11.9
2017-08-06T05:29:22.059Z,12
2017-08-06T05:30:29.530Z,12
2017-08-06T05:31:37.306Z,12.1
2017-08-06T05:32:44.787Z,12.1
2017-08-06T05:33:52.267Z,12.1
2017-08-06T05:34:59.768Z,12.1
2017-08-06T05:36:07.241Z,12.2
2017-08-06T05:37:15.022Z,12.3
2017-08-06T05:38:22.501Z,12.3
2017-08-06T05:39:29.987Z,12.3
2017-08-06T05:40:37.466Z,12.4
2017-08-06T05:41:44.942Z,12.5
2017-08-06T05:42:52.720Z,12.5
2017-08-06T05:44:00.198Z,12.5
2017-08-06T05:45:07.681Z,12.6
2017-08-06T05:46:15.162Z,12.6
2017-08-06T05:47:22.643Z,12.7
2017-08-06T05:48:30.417Z,12.7
2017-08-06T05:49:37.890Z,12.8
2017-08-06T05:50:44.709Z,12.8
2017-08-06T05:51:51.861Z,12.9
2017-08-06T05:52:59.012Z,13
2017-08-06T05:54:06.805Z,13.1
2017-08-06T05:55:14.282Z,13.2
2017-08-06T05:56:21.756Z,13.2
2017-08-06T05:57:29.231Z,13.3
2017-08-06T05:58:36.704Z,13.4
2017-08-06T05:59:44.486Z,13.5
2017-08-06T06:00:51.957Z,13.6
2017-08-06T06:01:59.435Z,13.7
2017-08-06T06:03:06.925Z,13.8
2017-08-06T06:04:14.409Z,13.9
2017-08-06T06:05:22.185Z,14
2017-08-06T06:06:29.666Z,14.1
2017-08-06T06:07:37.149Z,14.2
2017-08-06T06:08:44.634Z,14.3
2017-08-06T06:09:52.109Z,14.4
2017-08-06T06:11:01.772Z,14.6
2017-08-06T06:12:09.256Z,14.7
2017-08-06T06:13:16.730Z,14.9
2017-08-06T06:14:24.209Z,15
2017-08-06T06:15:31.687Z,15.1
2017-08-06T06:16:39.478Z,15.3
2017-08-06T06:17:46.971Z,15.4
2017-08-06T06:18:54.447Z,15.5
2017-08-06T06:20:01.609Z,15.7
2017-08-06T06:21:09.083Z,15.9
2017-08-06T06:22:16.857Z,16.1
2017-08-06T06:23:24.338Z,16.3
2017-08-06T06:24:31.819Z,16.4
2017-08-06T06:25:38.969Z,16.5
2017-08-06T06:26:46.454Z,16.7
2017-08-06T06:27:54.233Z,16.8
2017-08-06T06:29:01.704Z,16.8
2017-08-06T06:30:09.200Z,17
2017-08-06T06:31:16.673Z,17
2017-08-06T06:32:24.153Z,17
2017-08-06T06:33:31.937Z,17
2017-08-06T06:34:39.089Z,17
2017-08-06T06:35:46.566Z,17.1
2017-08-06T06:36:53.718Z,17.2
2017-08-06T06:38:00.876Z,17.3
2017-08-06T06:39:08.651Z,17.5
2017-08-06T06:40:16.141Z,17.6
2017-08-06T06:41:23.626Z,17.7
2017-08-06T06:42:31.121Z,17.6
2017-08-06T06:43:38.604Z,17.7
2017-08-06T06:44:46.402Z,17.7
2017-08-06T06:45:53.880Z,17.7
2017-08-06T06:47:01.041Z,17.8
2017-08-06T06:48:08.190Z,17.7
2017-08-06T06:49:15.682Z,17.8
2017-08-06T06:50:23.453Z,17.4
2017-08-06T06:51:30.951Z,17.5
2017-08-06T06:52:37.771Z,17.8
2017-08-06T06:53:45.271Z,17.9
2017-08-06T06:54:52.980Z,18
2017-08-06T06:56:00.762Z,18.1
2017-08-06T06:57:07.920Z,18.3
2017-08-06T06:58:15.401Z,18.4
2017-08-06T06:59:22.885Z,18.4
2017-08-06T07:00:30.369Z,18.3
2017-08-06T07:01:38.156Z,18.4
2017-08-06T07:02:45.633Z,18.3
2017-08-06T07:03:53.116Z,18.4
2017-08-06T07:05:00.596Z,18.5
2017-08-06T07:06:08.080Z,18.5
2017-08-06T07:07:15.862Z,18.7
2017-08-06T07:08:23.346Z,18.9
2017-08-06T07:09:30.826Z,19.1
2017-08-06T07:10:38.304Z,19.3
2017-08-06T07:11:47.373Z,19.4
2017-08-06T07:12:55.168Z,19.5
2017-08-06T07:14:02.647Z,19.2
2017-08-06T07:15:10.133Z,19.1
2017-08-06T07:16:17.610Z,18.9
2017-08-06T07:17:25.093Z,18.6
2017-08-06T07:18:32.867Z,18.7
2017-08-06T07:19:40.348Z,18.9
2017-08-06T07:20:47.498Z,19
2017-08-06T07:21:54.979Z,19.3
2017-08-06T07:23:02.464Z,19.3
2017-08-06T07:24:10.247Z,19.7
2017-08-06T07:25:17.726Z,19.9
2017-08-06T07:26:25.204Z,19.9
2017-08-06T07:27:32.691Z,20
2017-08-06T07:28:40.176Z,20.2
2017-08-06T07:29:47.623Z,19.9
2017-08-06T07:30:54.797Z,19.9
2017-08-06T07:32:02.276Z,19.9
2017-08-06T07:33:09.916Z,20
2017-08-06T07:34:17.416Z,19.9
2017-08-06T07:35:25.207Z,19.9
2017-08-06T07:36:32.683Z,20.1
2017-08-06T07:37:40.172Z,20.4
2017-08-06T07:38:47.660Z,20.6
2017-08-06T07:39:55.143Z,20.8
2017-08-06T07:41:02.591Z,20.9
2017-08-06T07:42:10.072Z,20.9
2017-08-06T07:43:17.549Z,21
2017-08-06T07:44:25.046Z,21.1
2017-08-06T07:45:32.527Z,21
2017-08-06T07:46:40.313Z,21
2017-08-06T07:47:47.794Z,21.2
2017-08-06T07:48:55.286Z,21.2
2017-08-06T07:50:02.772Z,21.4
2017-08-06T07:51:10.270Z,21.2
2017-08-06T07:52:18.056Z,21.3
2017-08-06T07:53:25.552Z,21.7
2017-08-06T07:54:33.038Z,21.8
2017-08-06T07:55:40.521Z,21.8
2017-08-06T07:56:48.007Z,21.9
2017-08-06T07:57:55.450Z,21.8
2017-08-06T07:59:02.933Z,21.5
2017-08-06T08:00:10.416Z,21.3
2017-08-06T08:01:17.926Z,21.4
2017-08-06T08:02:25.081Z,21.4
2017-08-06T08:03:32.865Z,21.6
2017-08-06T08:04:40.015Z,21.6
2017-08-06T08:05:47.495Z,21.8
2017-08-06T08:06:54.977Z,22
2017-08-06T08:08:02.461Z,22.2
2017-08-06T08:09:10.255Z,22.1
2017-08-06T08:10:17.747Z,21.9
2017-08-06T08:11:25.228Z,21.8
2017-08-06T08:12:32.391Z,21.6
2017-08-06T08:13:39.879Z,21.9
2017-08-06T08:14:47.337Z,21.8
2017-08-06T08:15:54.505Z,21.9
2017-08-06T08:17:01.990Z,21.9
2017-08-06T08:18:09.476Z,22.1
2017-08-06T08:19:16.961Z,22.6
2017-08-06T08:20:24.750Z,22.7
2017-08-06T08:21:31.583Z,23
2017-08-06T08:22:39.073Z,23.3
2017-08-06T08:23:46.562Z,23.5
2017-08-06T08:24:54.050Z,23.5
2017-08-06T08:26:01.843Z,23.7
2017-08-06T08:27:09.323Z,23.7
2017-08-06T08:28:16.471Z,23.7
2017-08-06T08:29:23.956Z,23.6
2017-08-06T08:30:30.797Z,23.6
2017-08-06T08:31:38.603Z,23.9
2017-08-06T08:32:46.086Z,23.9
2017-08-06T08:33:53.586Z,23.9
2017-08-06T08:35:01.065Z,23.9
2017-08-06T08:36:08.548Z,23.7
2017-08-06T08:37:16.360Z,23.6
2017-08-06T08:38:23.845Z,23.6
2017-08-06T08:39:31.337Z,23.8
2017-08-06T08:40:38.492Z,24.1
2017-08-06T08:41:45.976Z,23.5
2017-08-06T08:42:53.433Z,23.2
2017-08-06T08:44:00.925Z,23.1
2017-08-06T08:45:08.405Z,22.7
2017-08-06T08:46:15.895Z,22.5
2017-08-06T08:47:23.381Z,22.6
2017-08-06T08:48:30.545Z,22.8
2017-08-06T08:49:37.702Z,23.4
2017-08-06T08:50:45.531Z,23.6
2017-08-06T08:51:53.206Z,24
2017-08-06T08:53:00.707Z,23.8
2017-08-06T08:54:08.195Z,23.9
2017-08-06T08:55:15.680Z,24.1
2017-08-06T08:56:23.481Z,24.7
2017-08-06T08:57:30.628Z,24.9
2017-08-06T08:58:38.120Z,24.9
2017-08-06T08:59:45.601Z,24.3
2017-08-06T09:00:53.095Z,24.3
2017-08-06T09:02:00.587Z,23.9
2017-08-06T09:03:08.092Z,23.8
2017-08-06T09:04:15.588Z,23.9
2017-08-06T09:05:22.758Z,24.1
2017-08-06T09:06:29.929Z,24.4
2017-08-06T09:07:37.731Z,24.2
2017-08-06T09:08:45.240Z,24.5
2017-08-06T09:09:52.758Z,24.7
2017-08-06T09:11:00.262Z,24.9
2017-08-06T09:12:07.759Z,25.1
2017-08-06T09:13:15.557Z,25.3
2017-08-06T09:14:23.049Z,25.7
2017-08-06T09:15:30.541Z,25.7
2017-08-06T09:16:38.033Z,25.7
2017-08-06T09:17:45.204Z,25.2
2017-08-06T09:18:53.001Z,24.3
2017-08-06T09:20:00.155Z,23.9
2017-08-06T09:21:07.647Z,24.3
2017-08-06T09:22:15.129Z,25
2017-08-06T09:23:22.615Z,24.3
2017-08-06T09:24:30.402Z,23.9
2017-08-06T09:25:37.889Z,23.6
2017-08-06T09:26:45.389Z,23.5
2017-08-06T09:27:52.875Z,23.9
2017-08-06T09:29:00.371Z,24.2
2017-08-06T09:30:07.830Z,24.4
2017-08-06T09:31:14.989Z,24.4
2017-08-06T09:32:22.487Z,24.5
2017-08-06T09:33:29.898Z,25
2017-08-06T09:34:37.386Z,25.7
2017-08-06T09:35:44.859Z,26.2
2017-08-06T09:36:52.341Z,26.5
2017-08-06T09:37:59.837Z,26.4
2017-08-06T09:39:07.323Z,26.1
2017-08-06T09:40:14.478Z,25.4
2017-08-06T09:41:22.264Z,24.7
2017-08-06T09:42:29.752Z,24.2
2017-08-06T09:43:37.240Z,23.9
2017-08-06T09:44:44.395Z,23.8
2017-08-06T09:45:51.924Z,23.7
2017-08-06T09:46:59.411Z,23.6
2017-08-06T09:48:06.584Z,23.8
2017-08-06T09:49:13.752Z,23.9
2017-08-06T09:50:21.256Z,24.4
2017-08-06T09:51:28.738Z,25
2017-08-06T09:52:36.577Z,25.2
2017-08-06T09:53:44.065Z,25.4
2017-08-06T09:54:51.237Z,25.7
2017-08-06T09:55:58.721Z,26.2
2017-08-06T09:57:06.209Z,26.6
2017-08-06T09:58:14.043Z,26.8
2017-08-06T09:59:21.528Z,26.7
2017-08-06T10:00:28.690Z,26.6
2017-08-06T10:01:36.185Z,26.8
2017-08-06T10:02:43.351Z,27.1
2017-08-06T10:03:51.179Z,27.2
2017-08-06T10:04:58.666Z,26.7
2017-08-06T10:06:05.828Z,26.7
2017-08-06T10:07:13.327Z,26.3
2017-08-06T10:08:20.822Z,25.5
2017-08-06T10:09:28.352Z,24.9
2017-08-06T10:10:35.832Z,24.1
2017-08-06T10:11:43.328Z,23.8
2017-08-06T10:12:50.813Z,23.4
2017-08-06T10:13:58.302Z,23.5
2017-08-06T10:15:06.139Z,23.6
2017-08-06T10:16:13.623Z,23.8
2017-08-06T10:17:21.112Z,24.1
2017-08-06T10:18:28.603Z,24.7
2017-08-06T10:19:36.091Z,25.1
2017-08-06T10:20:43.877Z,25.3
2017-08-06T10:21:51.364Z,25.8
2017-08-06T10:22:58.524Z,25.7
2017-08-06T10:24:06.024Z,25.8
2017-08-06T10:25:13.518Z,25.9
2017-08-06T10:26:21.320Z,25.9
2017-08-06T10:27:28.805Z,26.2
2017-08-06T10:28:36.291Z,26.2
2017-08-06T10:29:43.783Z,26.4
2017-08-06T10:30:51.276Z,26.3
2017-08-06T10:31:59.086Z,25.6
2017-08-06T10:33:06.576Z,25.4
2017-08-06T10:34:14.063Z,25.8
2017-08-06T10:35:21.546Z,25.9
2017-08-06T10:36:28.697Z,26
2017-08-06T10:37:36.497Z,26.3
2017-08-06T10:38:44.009Z,26.3
2017-08-06T10:39:51.500Z,26.3
2017-08-06T10:40:58.999Z,26.4
2017-08-06T10:42:06.497Z,26.5
2017-08-06T10:43:14.280Z,26
2017-08-06T10:44:21.772Z,25.8
2017-08-06T10:45:29.259Z,25.7
2017-08-06T10:46:36.758Z,25.8
2017-08-06T10:47:44.247Z,26.1
2017-08-06T10:48:52.037Z,26.1
2017-08-06T10:49:59.518Z,26.4
2017-08-06T10:51:06.695Z,26.6
2017-08-06T10:52:14.178Z,27
2017-08-06T10:53:21.664Z,27.4
2017-08-06T10:54:29.121Z,27.4
2017-08-06T10:55:36.611Z,27.4
2017-08-06T10:56:44.103Z,27.1
2017-08-06T10:57:51.292Z,26.8
2017-08-06T10:58:58.125Z,26.3
2017-08-06T11:00:05.926Z,25.7
2017-08-06T11:01:13.402Z,25.2
2017-08-06T11:02:21.290Z,25
2017-08-06T11:03:28.785Z,25.2
2017-08-06T11:04:36.274Z,25.5
2017-08-06T11:05:44.066Z,26.1
2017-08-06T11:06:51.785Z,26.2
2017-08-06T11:07:59.269Z,26.1
2017-08-06T11:09:06.760Z,25.8
2017-08-06T11:10:14.253Z,25.6
2017-08-06T11:11:22.045Z,25.8
2017-08-06T11:12:29.534Z,26.3
2017-08-06T11:13:37.020Z,26.3
2017-08-06T11:14:59.113Z,25.8
2017-08-06T11:16:06.602Z,25.7
2017-08-06T11:17:14.388Z,25.8
2017-08-06T11:18:21.882Z,26.1
2017-08-06T11:19:29.379Z,26.3
2017-08-06T11:20:36.860Z,26.5
2017-08-06T11:21:44.341Z,26.7
2017-08-06T11:22:52.128Z,26.8
2017-08-06T11:23:59.627Z,26.8
2017-08-06T11:25:08.337Z,26.5
2017-08-06T11:26:15.831Z,26.4
2017-08-06T11:27:23.319Z,26.5
2017-08-06T11:28:31.111Z,26.8
2017-08-06T11:29:38.598Z,27.1
2017-08-06T11:30:46.085Z,27.5
2017-08-06T11:31:53.574Z,27.9
2017-08-06T11:33:01.071Z,27.7
2017-08-06T11:34:08.861Z,27.6
2017-08-06T11:35:16.354Z,27.2
2017-08-06T11:36:23.848Z,27.1
2017-08-06T11:37:31.340Z,27
2017-08-06T11:38:38.499Z,27.2
2017-08-06T11:39:46.284Z,27.5
2017-08-06T11:40:53.767Z,27.7
2017-08-06T11:42:01.261Z,28.1
2017-08-06T11:43:08.753Z,27.9
2017-08-06T11:44:16.246Z,27.5
2017-08-06T11:45:24.032Z,26.9
2017-08-06T11:46:31.525Z,26.3
2017-08-06T11:47:39.032Z,25.8
2017-08-06T11:48:46.522Z,25.5
2017-08-06T11:49:54.020Z,25.6
2017-08-06T11:51:01.479Z,25.9
2017-08-06T11:52:08.639Z,25.9
2017-08-06T11:53:16.132Z,25.8
2017-08-06T11:54:23.624Z,26
2017-08-06T11:55:31.116Z,26.1
2017-08-06T11:56:38.904Z,26
2017-08-06T11:57:46.398Z,26.4
2017-08-06T11:58:53.889Z,26.9
2017-08-06T12:00:01.376Z,27.3
2017-08-06T12:01:08.871Z,27.6
2017-08-06T12:02:16.661Z,27.9
2017-08-06T12:03:24.162Z,27.9
2017-08-06T12:04:31.664Z,28.1
2017-08-06T12:05:39.169Z,28.4
2017-08-06T12:06:46.661Z,28.5
2017-08-06T12:07:54.128Z,28.5
2017-08-06T12:09:01.285Z,28.2
2017-08-06T12:10:08.769Z,28.1
2017-08-06T12:11:16.257Z,28.3
2017-08-06T12:12:23.751Z,28.4
2017-08-06T12:13:46.121Z,28.4
2017-08-06T12:14:53.609Z,28.3
2017-08-06T12:16:01.093Z,28.1
2017-08-06T12:17:08.251Z,27.2
2017-08-06T12:18:15.741Z,26.8
2017-08-06T12:19:23.531Z,26.2
2017-08-06T12:20:31.023Z,25.9
2017-08-06T12:21:38.178Z,25.9
2017-08-06T12:22:45.005Z,26
2017-08-06T12:23:52.492Z,26.3
2017-08-06T12:24:59.954Z,26.6
2017-08-06T12:26:07.116Z,27
2017-08-06T12:27:14.614Z,27.4
2017-08-06T12:28:21.448Z,27.6
2017-08-06T12:29:28.937Z,27.7
2017-08-06T12:30:36.747Z,27.9
2017-08-06T12:31:44.244Z,28
2017-08-06T12:32:51.725Z,28
2017-08-06T12:33:59.222Z,28.1
2017-08-06T12:35:06.719Z,28.5
2017-08-06T12:36:14.511Z,28.9
2017-08-06T12:37:21.665Z,28.9
2017-08-06T12:38:29.153Z,28.3
2017-08-06T12:39:36.319Z,28.2
2017-08-06T12:40:43.821Z,27.7
2017-08-06T12:41:51.612Z,27.5
2017-08-06T12:42:59.104Z,26.4
2017-08-06T12:44:06.261Z,26.4
2017-08-06T12:45:13.424Z,26.6
2017-08-06T12:46:20.913Z,26.2
2017-08-06T12:47:28.700Z,25.5
2017-08-06T12:48:36.187Z,24.9
2017-08-06T12:49:43.678Z,24.6
2017-08-06T12:50:51.167Z,24.7
2017-08-06T12:51:58.656Z,24.9
2017-08-06T12:53:07.894Z,25.2
2017-08-06T12:54:15.385Z,25.4
2017-08-06T12:55:22.874Z,26.1
2017-08-06T12:56:30.375Z,26.6
2017-08-06T12:57:37.859Z,27.3
2017-08-06T12:58:45.643Z,27.4
2017-08-06T12:59:53.141Z,27.9
2017-08-06T13:01:00.623Z,27.8
2017-08-06T13:02:07.788Z,27.8
2017-08-06T13:03:14.957Z,27.6
2017-08-06T13:04:22.736Z,27.4
2017-08-06T13:05:30.229Z,27.1
2017-08-06T13:06:37.721Z,26.9
2017-08-06T13:07:45.212Z,26.9
2017-08-06T13:08:52.697Z,26.7
2017-08-06T13:10:00.153Z,26.3
2017-08-06T13:11:07.636Z,26.7
2017-08-06T13:12:14.478Z,27.1
2017-08-06T13:13:21.964Z,27.3
2017-08-06T13:14:29.504Z,27.6
2017-08-06T13:15:38.424Z,27.9
2017-08-06T13:16:45.911Z,27.9
2017-08-06T13:17:53.399Z,28.3
2017-08-06T13:19:00.895Z,28.5
2017-08-06T13:20:08.379Z,28.9
2017-08-06T13:21:16.172Z,28.8
2017-08-06T13:22:23.362Z,28.9
2017-08-06T13:23:30.860Z,29.4
2017-08-06T13:24:37.976Z,29.5
2017-08-06T13:25:45.471Z,29.5
2017-08-06T13:26:53.256Z,29.5
2017-08-06T13:28:00.751Z,29.8
2017-08-06T13:29:08.240Z,30.1
2017-08-06T13:30:15.728Z,30.4
2017-08-06T13:31:23.219Z,30.2
2017-08-06T13:32:31.009Z,30
2017-08-06T13:33:38.545Z,30
2017-08-06T13:34:46.029Z,29.6
2017-08-06T13:35:53.542Z,29.3
2017-08-06T13:37:01.037Z,29
2017-08-06T13:38:08.875Z,28.8
2017-08-06T13:39:16.390Z,28.6
2017-08-06T13:40:23.884Z,28.8
2017-08-06T13:41:31.382Z,28.9
2017-08-06T13:42:38.873Z,28.9
2017-08-06T13:43:46.713Z,29.4
2017-08-06T13:44:54.202Z,29.5
2017-08-06T13:46:01.697Z,29.2
2017-08-06T13:47:09.191Z,29.3
2017-08-06T13:48:16.678Z,29.6
2017-08-06T13:49:24.518Z,29.7
2017-08-06T13:50:32.031Z,29.8
2017-08-06T13:51:39.520Z,30
2017-08-06T13:52:47.010Z,30.2
2017-08-06T13:53:54.500Z,29.8
2017-08-06T13:55:02.290Z,29.9
2017-08-06T13:56:09.780Z,30.2
2017-08-06T13:57:16.937Z,30.5
2017-08-06T13:58:24.453Z,31
2017-08-06T13:59:31.940Z,31.2
2017-08-06T14:00:39.731Z,31.4
2017-08-06T14:01:47.233Z,31.6
2017-08-06T14:02:54.723Z,31.6
2017-08-06T14:04:02.220Z,31.4
2017-08-06T14:05:09.398Z,31
2017-08-06T14:06:17.189Z,30.9
2017-08-06T14:07:24.676Z,30.6
2017-08-06T14:08:31.842Z,30.4
2017-08-06T14:09:39.327Z,29.9
2017-08-06T14:10:46.811Z,29.8
2017-08-06T14:11:54.602Z,30.1
2017-08-06T14:13:02.089Z,30.5
2017-08-06T14:14:09.581Z,30.6
2017-08-06T14:15:17.073Z,30.6
2017-08-06T14:16:24.564Z,30.7
2017-08-06T14:17:32.416Z,31.1
2017-08-06T14:18:39.911Z,31
2017-08-06T14:19:47.402Z,30.1
2017-08-06T14:20:54.894Z,30
2017-08-06T14:22:02.386Z,29.9
2017-08-06T14:23:10.178Z,29.3
2017-08-06T14:24:17.666Z,29.3
2017-08-06T14:25:25.158Z,29.2
2017-08-06T14:26:32.655Z,28.8
2017-08-06T14:27:40.149Z,29.1
2017-08-06T14:28:47.608Z,29
2017-08-06T14:29:54.937Z,28.6
2017-08-06T14:31:01.779Z,28.8
2017-08-06T14:32:09.267Z,29.1
2017-08-06T14:33:16.433Z,28.9
2017-08-06T14:34:24.226Z,28.4
2017-08-06T14:35:31.715Z,28.7
2017-08-06T14:36:39.211Z,29.3
2017-08-06T14:37:46.700Z,29.6
2017-08-06T14:38:54.188Z,29.8
2017-08-06T14:40:01.650Z,30.2
2017-08-06T14:41:09.145Z,29.7
2017-08-06T14:42:16.639Z,29.5
2017-08-06T14:43:24.154Z,29.5
2017-08-06T14:44:31.675Z,29.5
2017-08-06T14:45:38.509Z,29.8
2017-08-06T14:46:45.999Z,30.2
2017-08-06T14:47:53.498Z,30.6
2017-08-06T14:49:01.294Z,31
2017-08-06T14:50:08.800Z,31.4
2017-08-06T14:51:16.284Z,31.2
2017-08-06T14:52:23.784Z,31.1
2017-08-06T14:53:31.285Z,31.2
2017-08-06T14:54:39.076Z,31.1
2017-08-06T14:55:46.239Z,31
2017-08-06T14:56:53.736Z,31
2017-08-06T14:58:01.230Z,31
2017-08-06T14:59:08.778Z,31.2
2017-08-06T15:00:16.618Z,31.4
2017-08-06T15:01:24.108Z,31.3
2017-08-06T15:02:31.605Z,31.2
2017-08-06T15:03:39.126Z,31.4
2017-08-06T15:04:46.617Z,31.5
2017-08-06T15:05:54.131Z,31.2